You must use a browser capable of displaying tables to view this page.

The table shows the data used to make the storm track maps. Click on the storm name in the first row to get a close up view of the storm track.

Name Date Time (UT) Lat (degrees) Lon (degrees) Course (true) Speed (knots) Pressure (mb) Wind (knots) Gusts (knots) Type Actual / Forecast WMO
MERBOK 2011-08-03 06:00 23.5N 160.7E 280 12 ??? 030 040 DEP ACT WTPN31
MERBOK 2011-08-03 12:00 23.5N 159.4E 270 12 ??? 035 045 STO ACT WTPN31
MERBOK 2011-08-03 18:00 23.3N 158.9E 275 09 ??? 035 045 STO ACT WTPN31
MERBOK 2011-08-04 00:00 24.3N 158.4E 315 07 ??? 040 050 STO ACT WTPN31
MERBOK 2011-08-04 06:00 24.7N 157.3E 290 11 ??? 040 050 STO ACT WTPN31
MERBOK 2011-08-04 12:00 24.9N 156.7E 295 07 ??? 035 045 STO ACT WTPN31
MERBOK 2011-08-04 18:00 25.4N 156.2E 320 07 ??? 035 045 STO ACT WTPN31
MERBOK 2011-08-05 00:00 26.3N 155.4E 320 12 ??? 045 055 STO ACT WTPN31
MERBOK 2011-08-05 06:00 26.8N 155.3E 335 08 ??? 050 065 STO ACT WTPN31
MERBOK 2011-08-05 12:00 27.0N 154.7E 310 06 ??? 055 070 STO ACT WTPN31
MERBOK 2011-08-05 18:00 27.6N 154.2E 325 07 ??? 055 070 STO ACT WTPN31
MERBOK 2011-08-06 00:00 28.1N 153.8E 325 06 ??? 060 075 STO ACT WTPN31
MERBOK 2011-08-06 06:00 28.7N 154.0E 360 06 ??? 065 080 TYP ACT WTPN31
MERBOK 2011-08-06 12:00 29.3N 153.8E 350 06 ??? 075 090 TYP ACT WTPN31
MERBOK 2011-08-06 18:00 30.3N 153.9E 005 10 ??? 075 090 TYP ACT WTPN31
MERBOK 2011-08-07 00:00 31.0N 154.0E 005 07 ??? 080 100 TYP ACT WTPN31
MERBOK 2011-08-07 06:00 31.5N 154.1E 010 05 ??? 075 090 TYP ACT WTPN31
MERBOK 2011-08-07 12:00 32.4N 154.4E 015 09 ??? 070 085 TYP ACT WTPN31
MERBOK 2011-08-07 18:00 33.1N 155.0E 035 09 ??? 065 080 TYP ACT WTPN31
MERBOK 2011-08-08 00:00 34.3N 156.2E 040 16 ??? 065 080 TYP ACT WTPN31
MERBOK 2011-08-08 06:00 35.9N 157.8E 040 21 ??? 060 075 STO ACT WTPN31
MERBOK 2011-08-08 12:00 37.4N 159.1E 035 18 ??? 055 070 STO ACT WTPN31
MERBOK 2011-08-08 18:00 39.2N 160.3E 025 20 ??? 050 065 STO ACT WTPN31
MERBOK 2011-08-09 06:00 41.9N 162.9E ??? ??? ??? 050 065 ??? FOR WTPN31
MERBOK 2011-08-09 18:00 44.4N 165.0E ??? ??? ??? 050 065 ??? FOR WTPN31


Home Back

metcalf@akala.ifa.hawaii.edu